Time;durP1;ratioP1;P1;durP2;ratioP2;P2;SDS_P1;SDS_P2;PMS_P1;PMS_P2;Temp;Humidity;BMP_temperature;BMP_pressure;BME280_temperature;BME280_humidity;BME280_pressure;Samples;Min_cycle;Max_cycle;Signal;HPM_P1;HPM_P2
2022/10/08 00:01:37;;;;;;;26.03;16.43;;;;;;;;;;5016651;28;20192;-84
2022/10/08 00:04:41;;;;;;;25.33;15.97;;;;;;;;;;5028506;28;20219;-85
2022/10/08 00:07:46;;;;;;;26.73;16.87;;;;;;;;;;5027893;28;20363;-84
2022/10/08 00:11:00;;;;;;;26.77;16.47;;;;;;;;;;5015866;28;20187;-84
2022/10/08 00:14:05;;;;;;;21.77;16.60;;;;;;;;;;5027046;28;20235;-84
2022/10/08 00:17:09;;;;;;;24.40;16.67;;;;;;;;;;5016185;28;20184;-84
2022/10/08 00:20:13;;;;;;;25.17;17.70;;;;;;;;;;5016724;28;20183;-84
2022/10/08 00:23:17;;;;;;;25.03;18.57;;;;;;;;;;5027087;28;20231;-84
2022/10/08 00:26:24;;;;;;;24.73;17.70;;;;;;;;;;5027193;28;20718;-84
2022/10/08 00:29:29;;;;;;;30.33;19.17;;;;;;;;;;5027293;28;20643;-84
2022/10/08 00:32:33;;;;;;;24.27;17.17;;;;;;;;;;5015971;28;20188;-84
2022/10/08 00:35:38;;;;;;;26.23;17.40;;;;;;;;;;5027076;28;20212;-84
2022/10/08 00:38:42;;;;;;;28.43;20.40;;;;;;;;;;5015987;28;20192;-84
2022/10/08 00:41:50;;;;;;;30.00;20.53;;;;;;;;;;5015989;28;20180;-84
2022/10/08 00:44:58;;;;;;;28.60;19.77;;;;;;;;;;5015476;28;20192;-84
2022/10/08 00:48:03;;;;;;;33.17;22.13;;;;;;;;;;5026326;28;20220;-84
2022/10/08 00:51:07;;;;;;;32.27;22.20;;;;;;;;;;5016397;28;20184;-84
2022/10/08 00:54:12;;;;;;;30.27;21.50;;;;;;;;;;5015445;28;20223;-84
2022/10/08 00:57:18;;;;;;;29.23;21.83;;;;;;;;;;5015900;28;20180;-84
2022/10/08 01:00:24;;;;;;;32.13;21.07;;;;;;;;;;5027298;28;20203;-84
2022/10/08 01:03:28;;;;;;;30.57;22.07;;;;;;;;;;5003756;28;20227;-83
2022/10/08 01:06:59;;;;;;;31.70;21.47;;;;;;;;;;5026082;28;20220;-84
2022/10/08 01:10:30;;;;;;;27.90;20.80;;;;;;;;;;5015173;28;20192;-84
2022/10/08 01:13:51;;;;;;;31.57;20.20;;;;;;;;;;5014815;28;20239;-84
2022/10/08 01:17:24;;;;;;;28.63;19.67;;;;;;;;;;5019734;28;20207;-84
2022/10/08 01:20:59;;;;;;;27.73;19.60;;;;;;;;;;5015589;28;20204;-84
2022/10/08 01:25:31;;;;;;;25.50;16.67;;;;;;;;;;5026001;28;20726;-84
2022/10/08 01:27:57;;;;;;;30.10;18.77;;;;;;;;;;5036734;28;20236;-84
2022/10/08 01:31:08;;;;;;;30.27;20.20;;;;;;;;;;5013662;28;20183;-84
2022/10/08 01:34:20;;;;;;;30.20;19.93;;;;;;;;;;5002958;28;20228;-83
2022/10/08 01:37:37;;;;;;;33.00;21.93;;;;;;;;;;5024897;28;20184;-84
2022/10/08 01:40:43;;;;;;;27.23;20.57;;;;;;;;;;5014786;28;20188;-83
2022/10/08 01:43:56;;;;;;;27.93;20.77;;;;;;;;;;5025129;28;20223;-84
2022/10/08 01:47:04;;;;;;;26.17;19.37;;;;;;;;;;5014141;28;20211;-84
2022/10/08 01:50:20;;;;;;;30.03;19.90;;;;;;;;;;5002542;28;20211;-84
2022/10/08 01:53:27;;;;;;;24.10;16.87;;;;;;;;;;5002531;28;20215;-84
2022/10/08 01:56:33;;;;;;;23.70;17.67;;;;;;;;;;5027693;28;20191;-83
2022/10/08 01:59:45;;;;;;;23.83;18.33;;;;;;;;;;5018590;28;20188;-84
2022/10/08 02:02:49;;;;;;;22.63;17.10;;;;;;;;;;5017752;28;20582;-84
2022/10/08 02:05:54;;;;;;;22.00;17.37;;;;;;;;;;5029628;28;20208;-83
2022/10/08 02:08:58;;;;;;;27.50;18.17;;;;;;;;;;5006386;28;20235;-84
2022/10/08 02:12:04;;;;;;;22.00;17.37;;;;;;;;;;5005966;28;20203;-83
2022/10/08 02:15:13;;;;;;;23.57;17.23;;;;;;;;;;5028894;28;20200;-84
2022/10/08 02:18:31;;;;;;;20.93;15.67;;;;;;;;;;5016985;28;20647;-83
2022/10/08 02:21:39;;;;;;;19.67;16.03;;;;;;;;;;5017005;28;20192;-83
2022/10/08 02:24:51;;;;;;;22.37;16.63;;;;;;;;;;5005994;28;20663;-83
2022/10/08 02:28:02;;;;;;;22.47;16.33;;;;;;;;;;5006272;28;20219;-83
2022/10/08 02:31:13;;;;;;;23.20;16.23;;;;;;;;;;5016864;28;20207;-84
2022/10/08 02:34:29;;;;;;;23.07;16.50;;;;;;;;;;5005147;28;20231;-83
2022/10/08 02:37:41;;;;;;;23.80;16.37;;;;;;;;;;5027778;28;20184;-83
2022/10/08 02:40:50;;;;;;;25.27;16.73;;;;;;;;;;5016767;28;20200;-84
2022/10/08 02:43:58;;;;;;;29.20;17.67;;;;;;;;;;5016565;28;20215;-84
2022/10/08 02:47:07;;;;;;;23.33;18.33;;;;;;;;;;5016123;28;20679;-83
2022/10/08 02:50:16;;;;;;;24.40;17.53;;;;;;;;;;5005508;28;20188;-84
2022/10/08 02:53:23;;;;;;;23.17;18.40;;;;;;;;;;5027549;28;20219;-83
2022/10/08 02:56:33;;;;;;;20.27;15.70;;;;;;;;;;5016573;28;20559;-84
2022/10/08 02:59:38;;;;;;;20.90;15.93;;;;;;;;;;5005510;28;20196;-84
2022/10/08 03:03:09;;;;;;;22.83;16.33;;;;;;;;;;5016239;28;20236;-84
2022/10/08 03:06:17;;;;;;;19.93;16.23;;;;;;;;;;5021705;28;20196;-84
2022/10/08 03:09:23;;;;;;;20.47;16.40;;;;;;;;;;5004802;28;20208;-84
2022/10/08 03:12:29;;;;;;;22.17;16.70;;;;;;;;;;5005076;28;20575;-84
2022/10/08 03:15:35;;;;;;;20.13;15.97;;;;;;;;;;5005176;28;20185;-83
2022/10/08 03:18:41;;;;;;;25.43;16.20;;;;;;;;;;5004837;28;20184;-84
2022/10/08 03:21:47;;;;;;;21.00;15.43;;;;;;;;;;5026745;28;20184;-85
2022/10/08 03:24:51;;;;;;;20.07;16.07;;;;;;;;;;5027351;28;20184;-84
2022/10/08 03:27:56;;;;;;;18.97;15.20;;;;;;;;;;5016677;28;20686;-83
2022/10/08 03:31:06;;;;;;;19.50;14.37;;;;;;;;;;5027362;28;20647;-84
2022/10/08 03:34:10;;;;;;;16.67;14.10;;;;;;;;;;5004426;28;20223;-84
2022/10/08 03:37:14;;;;;;;16.70;13.67;;;;;;;;;;5026789;28;20200;-83
2022/10/08 03:40:20;;;;;;;21.57;13.43;;;;;;;;;;5004710;28;20591;-84
2022/10/08 03:43:29;;;;;;;16.53;13.87;;;;;;;;;;5003752;28;20579;-84
2022/10/08 03:46:34;;;;;;;17.40;12.63;;;;;;;;;;5015571;28;20644;-83
2022/10/08 03:49:38;;;;;;;15.20;13.37;;;;;;;;;;5026649;28;20181;-83
2022/10/08 03:52:43;;;;;;;16.73;13.67;;;;;;;;;;5015087;28;20223;-84
2022/10/08 03:55:48;;;;;;;17.43;13.27;;;;;;;;;;5015940;28;20662;-84
2022/10/08 03:58:55;;;;;;;17.43;13.50;;;;;;;;;;5015143;28;20180;-84
2022/10/08 04:01:59;;;;;;;13.97;12.47;;;;;;;;;;5015200;28;20675;-83
2022/10/08 04:05:03;;;;;;;20.50;12.93;;;;;;;;;;5015019;28;20184;-83
2022/10/08 04:08:07;;;;;;;17.27;13.80;;;;;;;;;;5003611;28;20208;-83
2022/10/08 04:11:14;;;;;;;15.57;12.97;;;;;;;;;;5015123;28;20192;-84
2022/10/08 04:14:18;;;;;;;17.10;13.20;;;;;;;;;;5003410;28;20300;-84
2022/10/08 04:17:23;;;;;;;15.23;12.57;;;;;;;;;;5015467;28;20547;-84
2022/10/08 04:20:27;;;;;;;14.37;12.30;;;;;;;;;;5014414;28;20559;-83
2022/10/08 04:23:33;;;;;;;13.77;12.07;;;;;;;;;;5014297;28;20593;-83
2022/10/08 04:26:37;;;;;;;18.07;12.27;;;;;;;;;;5014697;28;20188;-83
2022/10/08 04:29:41;;;;;;;32.53;12.50;;;;;;;;;;5013710;28;20181;-84
2022/10/08 04:32:45;;;;;;;15.43;11.97;;;;;;;;;;5013960;28;20212;-84
2022/10/08 04:35:49;;;;;;;15.03;11.63;;;;;;;;;;5013769;28;20529;-83
2022/10/08 04:38:53;;;;;;;15.47;11.23;;;;;;;;;;5013548;28;20173;-84
2022/10/08 04:41:57;;;;;;;13.17;11.27;;;;;;;;;;5013726;28;20632;-83
2022/10/08 04:45:01;;;;;;;14.97;11.50;;;;;;;;;;5024928;28;20196;-84
2022/10/08 04:48:07;;;;;;;12.27;11.03;;;;;;;;;;5003395;28;20201;-84
2022/10/08 04:51:12;;;;;;;14.80;11.00;;;;;;;;;;5024697;28;20200;-84
2022/10/08 04:54:16;;;;;;;15.33;12.57;;;;;;;;;;5002295;28;20212;-84
2022/10/08 04:57:20;;;;;;;13.07;11.17;;;;;;;;;;5012990;28;20188;-84
2022/10/08 05:00:24;;;;;;;12.67;11.27;;;;;;;;;;5002363;28;20193;-84
2022/10/08 05:03:29;;;;;;;12.97;11.40;;;;;;;;;;5013280;28;20220;-83
2022/10/08 05:06:33;;;;;;;13.03;11.60;;;;;;;;;;5025055;28;20185;-83
2022/10/08 05:09:37;;;;;;;13.03;11.07;;;;;;;;;;5024811;28;20185;-84
2022/10/08 05:12:41;;;;;;;13.87;11.03;;;;;;;;;;5013519;28;20224;-84
2022/10/08 05:15:47;;;;;;;16.10;12.20;;;;;;;;;;5013496;28;20189;-83
2022/10/08 05:18:51;;;;;;;13.03;10.13;;;;;;;;;;5039787;28;20743;-84
2022/10/08 05:21:55;;;;;;;13.10;11.43;;;;;;;;;;5022112;28;20196;-83
2022/10/08 05:24:59;;;;;;;10.83;9.73;;;;;;;;;;5022064;28;20184;-83
2022/10/08 05:28:04;;;;;;;10.77;9.50;;;;;;;;;;5021668;28;20212;-84
2022/10/08 05:31:08;;;;;;;14.43;11.30;;;;;;;;;;5020902;28;20194;-83
2022/10/08 05:34:13;;;;;;;11.27;10.07;;;;;;;;;;5032939;28;20211;-83
2022/10/08 05:37:17;;;;;;;11.37;10.17;;;;;;;;;;5017703;28;20203;-84
2022/10/08 05:40:23;;;;;;;16.37;10.57;;;;;;;;;;5027598;28;20203;-83
2022/10/08 05:43:27;;;;;;;11.60;10.40;;;;;;;;;;5022237;28;20220;-84
2022/10/08 05:46:33;;;;;;;10.90;9.70;;;;;;;;;;5022106;28;20199;-84
2022/10/08 05:49:38;;;;;;;11.23;9.80;;;;;;;;;;5002137;28;20208;-84
2022/10/08 05:52:42;;;;;;;12.17;10.13;;;;;;;;;;5013352;28;20216;-84
2022/10/08 05:55:46;;;;;;;13.00;11.37;;;;;;;;;;5002893;28;20177;-83
2022/10/08 05:58:51;;;;;;;13.23;10.53;;;;;;;;;;5013110;28;20521;-84
2022/10/08 06:01:55;;;;;;;13.93;10.70;;;;;;;;;;5002712;28;20181;-83
2022/10/08 06:04:59;;;;;;;11.63;9.50;;;;;;;;;;5013378;28;20188;-84
2022/10/08 06:08:03;;;;;;;11.57;10.37;;;;;;;;;;5013047;28;20205;-83
2022/10/08 06:11:07;;;;;;;14.23;10.67;;;;;;;;;;5023541;28;20675;-83
2022/10/08 06:14:15;;;;;;;10.90;9.63;;;;;;;;;;5012018;28;20246;-84
2022/10/08 06:17:21;;;;;;;11.50;10.00;;;;;;;;;;5012351;28;20181;-83
2022/10/08 06:20:25;;;;;;;18.07;10.90;;;;;;;;;;5012797;28;20188;-83
2022/10/08 06:23:29;;;;;;;16.00;10.40;;;;;;;;;;5012463;28;20243;-84
2022/10/08 06:26:37;;;;;;;12.27;9.97;;;;;;;;;;5012393;28;20191;-84
2022/10/08 06:29:41;;;;;;;11.43;9.43;;;;;;;;;;5001209;28;20200;-83
2022/10/08 06:32:45;;;;;;;11.07;9.97;;;;;;;;;;5012522;28;20209;-84
2022/10/08 06:35:49;;;;;;;13.93;10.27;;;;;;;;;;5001386;28;20177;-83
2022/10/08 06:38:56;;;;;;;13.17;9.90;;;;;;;;;;5012325;28;20203;-84
2022/10/08 06:42:00;;;;;;;17.07;10.77;;;;;;;;;;5021168;28;20556;-84
2022/10/08 06:45:13;;;;;;;17.20;10.23;;;;;;;;;;5009316;28;20192;-84
2022/10/08 06:48:18;;;;;;;12.30;10.20;;;;;;;;;;5030002;28;20223;-84
2022/10/08 06:51:23;;;;;;;14.00;10.40;;;;;;;;;;5009362;28;20188;-84
2022/10/08 06:54:28;;;;;;;13.07;9.83;;;;;;;;;;5031113;28;20225;-84
2022/10/08 06:57:32;;;;;;;13.97;10.67;;;;;;;;;;5021120;28;20181;-84
2022/10/08 07:00:37;;;;;;;13.70;10.87;;;;;;;;;;5011306;28;20188;-84
2022/10/08 07:03:42;;;;;;;15.97;10.60;;;;;;;;;;5009794;28;20224;-84
2022/10/08 07:06:46;;;;;;;18.30;10.43;;;;;;;;;;5032116;28;20651;-84
2022/10/08 07:09:50;;;;;;;13.07;10.47;;;;;;;;;;5020385;28;20235;-83
2022/10/08 07:12:54;;;;;;;17.60;11.13;;;;;;;;;;5021172;28;20231;-83
2022/10/08 07:16:04;;;;;;;18.27;10.53;;;;;;;;;;5008897;28;20192;-84
2022/10/08 07:19:09;;;;;;;14.77;10.03;;;;;;;;;;5019933;28;20188;-84
2022/10/08 07:22:13;;;;;;;16.77;10.30;;;;;;;;;;5019886;28;20188;-84
2022/10/08 07:25:17;;;;;;;17.40;10.43;;;;;;;;;;5020031;28;20196;-83
2022/10/08 07:28:23;;;;;;;14.37;10.33;;;;;;;;;;5019748;28;20569;-84
2022/10/08 07:31:30;;;;;;;17.00;10.90;;;;;;;;;;5008188;28;20184;-84
2022/10/08 07:34:34;;;;;;;14.13;10.10;;;;;;;;;;5031398;28;20223;-84
2022/10/08 07:37:42;;;;;;;17.40;10.23;;;;;;;;;;5031232;28;20180;-83
2022/10/08 07:40:47;;;;;;;17.20;11.37;;;;;;;;;;5008530;28;20528;-83
2022/10/08 07:43:59;;;;;;;17.77;10.07;;;;;;;;;;5018841;28;20219;-84
2022/10/08 07:47:03;;;;;;;17.03;9.90;;;;;;;;;;5008873;28;20532;-84
2022/10/08 07:50:08;;;;;;;15.47;10.10;;;;;;;;;;5019214;28;20684;-83
2022/10/08 07:53:12;;;;;;;15.43;13.03;;;;;;;;;;5029666;28;20287;-83
2022/10/08 07:56:18;;;;;;;17.07;13.47;;;;;;;;;;5031435;28;20184;-83
2022/10/08 07:59:22;;;;;;;16.30;12.40;;;;;;;;;;5020418;28;20188;-83
2022/10/08 08:02:26;;;;;;;14.47;11.03;;;;;;;;;;5026521;28;20187;-84
2022/10/08 08:05:34;;;;;;;13.63;11.57;;;;;;;;;;5022923;28;20531;-83
2022/10/08 08:08:41;;;;;;;13.53;11.80;;;;;;;;;;5021152;28;20223;-83
2022/10/08 08:11:47;;;;;;;14.17;10.80;;;;;;;;;;5007376;28;20200;-83
2022/10/08 08:14:51;;;;;;;16.20;11.33;;;;;;;;;;5008235;28;20184;-83
2022/10/08 08:17:56;;;;;;;13.17;11.20;;;;;;;;;;5032311;28;20682;-83
2022/10/08 08:21:02;;;;;;;19.80;12.33;;;;;;;;;;5029990;28;20184;-83
2022/10/08 08:24:12;;;;;;;15.93;11.40;;;;;;;;;;5019292;28;20227;-84
2022/10/08 08:27:16;;;;;;;14.10;11.37;;;;;;;;;;5018566;28;20563;-83
2022/10/08 08:30:20;;;;;;;19.07;11.60;;;;;;;;;;5017931;28;20591;-83
2022/10/08 08:33:25;;;;;;;15.80;12.53;;;;;;;;;;5017965;28;20572;-83
2022/10/08 08:36:32;;;;;;;14.30;11.53;;;;;;;;;;5018238;28;20207;-82
2022/10/08 08:39:36;;;;;;;17.90;11.50;;;;;;;;;;5018170;28;20252;-83
2022/10/08 08:42:48;;;;;;;15.33;11.00;;;;;;;;;;5006260;28;20219;-83
2022/10/08 08:45:52;;;;;;;12.53;11.20;;;;;;;;;;5029452;28;20184;-83
2022/10/08 08:49:00;;;;;;;16.77;11.13;;;;;;;;;;5018314;28;20216;-83
2022/10/08 08:52:05;;;;;;;15.87;11.17;;;;;;;;;;5017979;28;20191;-83
2022/10/08 08:55:18;;;;;;;16.17;10.73;;;;;;;;;;5028164;28;20187;-84
2022/10/08 08:58:33;;;;;;;13.87;10.63;;;;;;;;;;5028049;28;20183;-84
2022/10/08 09:01:46;;;;;;;12.47;10.50;;;;;;;;;;5028706;28;20191;-84
2022/10/08 09:04:57;;;;;;;12.33;10.80;;;;;;;;;;5027326;28;20195;-84
2022/10/08 09:08:09;;;;;;;13.77;11.23;;;;;;;;;;5027047;28;20177;-84
2022/10/08 09:11:16;;;;;;;16.47;11.27;;;;;;;;;;5027408;28;20184;-84
2022/10/08 09:14:33;;;;;;;15.83;12.43;;;;;;;;;;5026125;28;20243;-84
2022/10/08 09:17:39;;;;;;;13.03;10.50;;;;;;;;;;5016213;28;20575;-84
2022/10/08 09:20:44;;;;;;;16.27;11.40;;;;;;;;;;5037144;28;20187;-84
2022/10/08 09:23:48;;;;;;;16.00;12.20;;;;;;;;;;5025622;28;20223;-85
2022/10/08 09:26:53;;;;;;;18.80;12.13;;;;;;;;;;5037583;28;20207;-84
2022/10/08 09:29:57;;;;;;;17.27;10.93;;;;;;;;;;5023590;28;20603;-83
2022/10/08 09:33:25;;;;;;;14.23;11.73;;;;;;;;;;5013542;28;20223;-84
2022/10/08 09:36:33;;;;;;;18.13;12.07;;;;;;;;;;5037952;28;20192;-84
2022/10/08 09:39:37;;;;;;;15.60;11.53;;;;;;;;;;5014532;28;20207;-84
2022/10/08 09:42:41;;;;;;;16.60;12.77;;;;;;;;;;5025606;28;20222;-84
2022/10/08 09:45:48;;;;;;;18.93;12.23;;;;;;;;;;5027312;28;20187;-84
2022/10/08 09:48:52;;;;;;;15.90;12.37;;;;;;;;;;5036050;28;20211;-84
2022/10/08 09:52:02;;;;;;;17.47;13.13;;;;;;;;;;5025318;28;20203;-84
2022/10/08 09:55:47;;;;;;;20.20;13.80;;;;;;;;;;5014458;28;20187;-84
2022/10/08 09:59:01;;;;;;;15.53;12.30;;;;;;;;;;5005752;28;20211;-84
2022/10/08 10:02:28;;;;;;;21.47;11.53;;;;;;;;;;5036233;28;20191;-84
2022/10/08 10:05:35;;;;;;;20.57;12.93;;;;;;;;;;5014131;28;20191;-84
2022/10/08 10:08:49;;;;;;;15.67;11.97;;;;;;;;;;5012196;28;20195;-84
2022/10/08 10:12:02;;;;;;;16.00;11.57;;;;;;;;;;5013458;28;20177;-83
2022/10/08 10:15:13;;;;;;;14.50;11.80;;;;;;;;;;5023891;28;20582;-84
2022/10/08 10:18:29;;;;;;;18.60;11.10;;;;;;;;;;5027574;28;20187;-84
2022/10/08 10:21:43;;;;;;;20.50;11.80;;;;;;;;;;5027499;28;20653;-83
2022/10/08 10:24:56;;;;;;;16.63;12.20;;;;;;;;;;5039925;28;20191;-84
2022/10/08 10:28:06;;;;;;;17.17;10.87;;;;;;;;;;5017131;28;20635;-84
2022/10/08 10:31:29;;;;;;;14.27;10.97;;;;;;;;;;5038810;28;20193;-84
2022/10/08 10:34:39;;;;;;;15.53;10.07;;;;;;;;;;5027872;28;20238;-84
2022/10/08 10:37:49;;;;;;;16.57;11.17;;;;;;;;;;5028191;28;20200;-84
2022/10/08 10:41:19;;;;;;;15.80;11.30;;;;;;;;;;5028905;28;20201;-83
2022/10/08 10:44:35;;;;;;;15.87;10.80;;;;;;;;;;5026967;28;20230;-84
2022/10/08 10:47:40;;;;;;;14.37;10.20;;;;;;;;;;5050943;28;20203;-84
2022/10/08 10:51:20;;;;;;;22.60;18.67;;;;;;;;;;5038733;28;20253;-83
2022/10/08 10:54:48;;;;;;;16.67;9.70;;;;;;;;;;5039425;28;20219;-84
2022/10/08 10:58:12;;;;;;;16.13;10.50;;;;;;;;;;5026401;28;20181;-83
2022/10/08 11:01:35;;;;;;;16.77;10.10;;;;;;;;;;5037944;28;20189;-83
2022/10/08 11:05:12;;;;;;;16.37;10.80;;;;;;;;;;5025490;28;20602;-83
2022/10/08 11:08:29;;;;;;;24.17;10.73;;;;;;;;;;5016787;28;20207;-83
2022/10/08 11:11:36;;;;;;;21.10;11.20;;;;;;;;;;5026857;28;20180;-84
2022/10/08 11:15:19;;;;;;;16.00;10.40;;;;;;;;;;5026941;28;20234;-83
2022/10/08 11:18:29;;;;;;;15.60;9.50;;;;;;;;;;5026372;28;20251;-84
2022/10/08 11:21:45;;;;;;;18.23;9.80;;;;;;;;;;5015245;28;20517;-83
2022/10/08 11:25:13;;;;;;;18.73;10.80;;;;;;;;;;5015599;28;20177;-84
2022/10/08 11:28:41;;;;;;;15.57;10.27;;;;;;;;;;5051791;28;20206;-84
2022/10/08 11:31:50;;;;;;;14.63;9.57;;;;;;;;;;5014346;28;20180;-84
2022/10/08 11:35:10;;;;;;;13.33;9.53;;;;;;;;;;5014624;28;20185;-83
2022/10/08 11:38:14;;;;;;;19.03;9.57;;;;;;;;;;5026507;28;20177;-83
2022/10/08 11:41:32;;;;;;;14.60;10.50;;;;;;;;;;5037717;28;20181;-84
2022/10/08 11:44:36;;;;;;;15.57;10.23;;;;;;;;;;5014688;28;20223;-84
2022/10/08 11:47:40;;;;;;;18.07;10.60;;;;;;;;;;5026221;28;20203;-84
2022/10/08 11:50:45;;;;;;;23.80;9.93;;;;;;;;;;5049590;28;20230;-83
2022/10/08 11:54:05;;;;;;;14.20;9.70;;;;;;;;;;5026114;28;20220;-84
2022/10/08 11:57:16;;;;;;;13.67;9.10;;;;;;;;;;5026056;28;20185;-84
2022/10/08 12:00:42;;;;;;;12.23;9.13;;;;;;;;;;5050126;28;20173;-84
2022/10/08 12:04:06;;;;;;;13.10;9.77;;;;;;;;;;5014280;28;20217;-85
2022/10/08 12:07:13;;;;;;;12.50;9.23;;;;;;;;;;5026366;28;20283;-83
2022/10/08 12:10:17;;;;;;;17.30;10.07;;;;;;;;;;5014642;28;20204;-84
2022/10/08 12:13:25;;;;;;;13.70;9.50;;;;;;;;;;5025724;28;20713;-83
2022/10/08 12:16:54;;;;;;;13.87;9.60;;;;;;;;;;5014760;28;20201;-83
2022/10/08 12:20:00;;;;;;;14.60;9.87;;;;;;;;;;5025370;28;20173;-84
2022/10/08 12:23:11;;;;;;;15.77;9.43;;;;;;;;;;5024743;28;20212;-84
2022/10/08 12:26:16;;;;;;;13.30;9.50;;;;;;;;;;5014507;28;20181;-83
2022/10/08 12:30:05;;;;;;;15.93;9.97;;;;;;;;;;5025344;28;20177;-83
2022/10/08 12:33:10;;;;;;;19.07;10.33;;;;;;;;;;5012838;28;20221;-84
2022/10/08 12:36:21;;;;;;;17.17;11.03;;;;;;;;;;5013305;28;20185;-83
2022/10/08 12:39:35;;;;;;;12.13;9.27;;;;;;;;;;5018118;28;20199;-84
2022/10/08 12:42:40;;;;;;;16.17;10.77;;;;;;;;;;5004942;28;20216;-84
2022/10/08 12:46:09;;;;;;;20.60;10.20;;;;;;;;;;5005225;28;20568;-84
2022/10/08 12:49:23;;;;;;;18.80;11.83;;;;;;;;;;5040001;28;20191;-84
2022/10/08 12:52:33;;;;;;;18.10;11.00;;;;;;;;;;5016654;28;20192;-83
2022/10/08 12:55:48;;;;;;;22.33;11.73;;;;;;;;;;5016386;28;20188;-84
2022/10/08 12:58:56;;;;;;;20.27;12.90;;;;;;;;;;5027783;28;20188;-84
2022/10/08 13:02:00;;;;;;;14.80;10.10;;;;;;;;;;5005256;28;20180;-84
2022/10/08 13:05:25;;;;;;;20.93;14.23;;;;;;;;;;5005206;28;20183;-84
2022/10/08 13:08:37;;;;;;;16.40;10.60;;;;;;;;;;5015971;28;20188;-83
2022/10/08 13:11:41;;;;;;;17.53;10.30;;;;;;;;;;5004353;28;20702;-84
2022/10/08 13:14:45;;;;;;;13.93;10.00;;;;;;;;;;5016441;28;20184;-84
2022/10/08 13:17:49;;;;;;;13.97;10.23;;;;;;;;;;5005184;28;20183;-84
2022/10/08 13:20:58;;;;;;;19.47;11.73;;;;;;;;;;5016164;28;20184;-84
2022/10/08 13:24:11;;;;;;;18.23;10.43;;;;;;;;;;5015425;28;20706;-84
2022/10/08 13:27:27;;;;;;;13.60;9.83;;;;;;;;;;5005059;28;20199;-85
2022/10/08 13:30:31;;;;;;;12.33;8.87;;;;;;;;;;5015364;28;20217;-85
2022/10/08 13:33:37;;;;;;;20.73;9.67;;;;;;;;;;5005342;28;20208;-86
2022/10/08 13:36:53;;;;;;;13.20;9.10;;;;;;;;;;5004845;28;20185;-85
2022/10/08 13:40:10;;;;;;;14.27;9.57;;;;;;;;;;5015952;28;20189;-85
2022/10/08 13:43:14;;;;;;;14.23;9.33;;;;;;;;;;5004505;28;20216;-85
2022/10/08 13:46:18;;;;;;;15.07;9.47;;;;;;;;;;5004768;28;20181;-85
2022/10/08 13:49:24;;;;;;;17.17;9.20;;;;;;;;;;5015361;28;20180;-84
2022/10/08 13:52:31;;;;;;;14.30;9.10;;;;;;;;;;5029015;28;20533;-84
2022/10/08 13:55:35;;;;;;;13.87;8.60;;;;;;;;;;5008327;28;20180;-85
2022/10/08 13:58:40;;;;;;;15.27;8.57;;;;;;;;;;5019064;28;20181;-85
2022/10/08 14:01:44;;;;;;;13.97;8.87;;;;;;;;;;5019557;28;20177;-84
2022/10/08 14:04:50;;;;;;;14.07;7.80;;;;;;;;;;5019667;28;20177;-84
2022/10/08 14:07:58;;;;;;;16.47;8.87;;;;;;;;;;5018270;28;20196;-84
2022/10/08 14:11:02;;;;;;;9.43;7.20;;;;;;;;;;5007341;28;20228;-84
2022/10/08 14:14:10;;;;;;;9.17;7.37;;;;;;;;;;5019092;28;20576;-84
2022/10/08 14:17:14;;;;;;;15.63;7.80;;;;;;;;;;5006973;28;20181;-84
2022/10/08 14:20:19;;;;;;;12.43;7.77;;;;;;;;;;5030084;28;20173;-85
2022/10/08 14:23:23;;;;;;;12.67;7.23;;;;;;;;;;5018784;28;20216;-84
2022/10/08 14:26:29;;;;;;;12.60;7.10;;;;;;;;;;5030003;28;20185;-85
2022/10/08 14:29:34;;;;;;;12.87;6.57;;;;;;;;;;5007366;28;20204;-84
2022/10/08 14:32:38;;;;;;;10.03;3.70;;;;;;;;;;5019452;28;20173;-85
2022/10/08 14:35:43;;;;;;;6.57;3.40;;;;;;;;;;5018570;28;20525;-83
2022/10/08 14:38:47;;;;;;;5.83;3.13;;;;;;;;;;5006514;28;20188;-84
2022/10/08 14:41:52;;;;;;;6.20;2.87;;;;;;;;;;5018510;28;20173;-83
2022/10/08 14:44:57;;;;;;;6.40;2.80;;;;;;;;;;5006978;28;20177;-83
2022/10/08 14:48:01;;;;;;;3.80;2.43;;;;;;;;;;5006617;28;20181;-83
2022/10/08 14:51:05;;;;;;;5.53;2.70;;;;;;;;;;5019960;28;20228;-84
2022/10/08 14:54:09;;;;;;;5.77;2.90;;;;;;;;;;5006450;28;20212;-83
2022/10/08 14:57:19;;;;;;;10.33;2.93;;;;;;;;;;5007370;28;20196;-84
2022/10/08 15:00:23;;;;;;;7.07;2.37;;;;;;;;;;5017994;28;20181;-84
2022/10/08 15:03:27;;;;;;;4.13;2.63;;;;;;;;;;5005958;28;20216;-84
2022/10/08 15:06:32;;;;;;;7.07;2.40;;;;;;;;;;5006473;28;20181;-84
2022/10/08 15:09:39;;;;;;;7.77;3.97;;;;;;;;;;5016645;28;20177;-83
2022/10/08 15:12:44;;;;;;;5.53;2.87;;;;;;;;;;5017138;28;20221;-84
2022/10/08 15:15:48;;;;;;;4.97;2.27;;;;;;;;;;5005493;28;20177;-84
2022/10/08 15:18:52;;;;;;;13.33;3.47;;;;;;;;;;5016842;28;20632;-84
2022/10/08 15:21:56;;;;;;;7.73;3.17;;;;;;;;;;5005754;28;20193;-84
2022/10/08 15:25:00;;;;;;;9.67;3.50;;;;;;;;;;5017000;28;20561;-83
2022/10/08 15:28:04;;;;;;;17.17;2.97;;;;;;;;;;5017016;28;20189;-83
2022/10/08 15:31:15;;;;;;;8.53;3.10;;;;;;;;;;5016345;28;20224;-83
2022/10/08 15:34:19;;;;;;;10.40;4.97;;;;;;;;;;5005277;28;20659;-83
2022/10/08 15:37:23;;;;;;;23.47;7.40;;;;;;;;;;5016688;28;20201;-84
2022/10/08 15:40:30;;;;;;;16.53;8.83;;;;;;;;;;5016836;28;20185;-83
2022/10/08 15:43:34;;;;;;;11.93;6.17;;;;;;;;;;5016411;28;20220;-84
2022/10/08 15:46:38;;;;;;;8.73;3.60;;;;;;;;;;5007362;28;20176;-84
2022/10/08 15:49:44;;;;;;;9.20;3.97;;;;;;;;;;5028979;28;20200;-83
2022/10/08 15:52:48;;;;;;;8.10;2.60;;;;;;;;;;5015956;28;20212;-83
2022/10/08 15:55:54;;;;;;;10.20;2.83;;;;;;;;;;5017102;28;20181;-83
2022/10/08 15:58:59;;;;;;;12.37;4.00;;;;;;;;;;5016174;28;20616;-82
2022/10/08 16:02:05;;;;;;;7.97;2.67;;;;;;;;;;5026937;28;20173;-83
2022/10/08 16:05:09;;;;;;;2.70;1.67;;;;;;;;;;5026556;28;20176;-83
2022/10/08 16:08:13;;;;;;;5.87;1.70;;;;;;;;;;5026623;28;20180;-83
2022/10/08 16:11:29;;;;;;;4.87;2.53;;;;;;;;;;5015495;28;20208;-83
2022/10/08 16:14:33;;;;;;;5.60;2.17;;;;;;;;;;5014310;28;20221;-83
2022/10/08 16:17:38;;;;;;;7.80;2.80;;;;;;;;;;5038121;28;20197;-83
2022/10/08 16:20:42;;;;;;;7.50;2.80;;;;;;;;;;5038481;28;20200;-83
2022/10/08 16:23:46;;;;;;;6.03;2.53;;;;;;;;;;5015769;28;20212;-82
2022/10/08 16:26:51;;;;;;;6.00;2.43;;;;;;;;;;5038436;28;20184;-82
2022/10/08 16:29:55;;;;;;;5.07;2.90;;;;;;;;;;5027474;28;20185;-83
2022/10/08 16:33:00;;;;;;;9.57;3.00;;;;;;;;;;5027501;28;20208;-83
2022/10/08 16:36:07;;;;;;;8.77;3.00;;;;;;;;;;5014679;28;20176;-83
2022/10/08 16:39:13;;;;;;;9.13;2.47;;;;;;;;;;5026382;28;20181;-83
2022/10/08 16:42:18;;;;;;;9.20;2.43;;;;;;;;;;5037622;28;20177;-83
2022/10/08 16:45:22;;;;;;;10.37;2.33;;;;;;;;;;5026469;28;20189;-83
2022/10/08 16:48:26;;;;;;;9.80;2.20;;;;;;;;;;5026685;28;20181;-83
2022/10/08 16:51:35;;;;;;;5.63;1.93;;;;;;;;;;5026297;28;20224;-83
2022/10/08 16:54:39;;;;;;;6.37;1.77;;;;;;;;;;5025780;28;20220;-83
2022/10/08 16:57:43;;;;;;;5.87;2.57;;;;;;;;;;5015408;28;20528;-83
2022/10/08 17:00:47;;;;;;;10.30;4.03;;;;;;;;;;5014829;28;20184;-83
2022/10/08 17:03:52;;;;;;;15.20;7.07;;;;;;;;;;5014234;28;20213;-82
2022/10/08 17:06:57;;;;;;;9.43;4.83;;;;;;;;;;5015249;28;20185;-83
2022/10/08 17:10:02;;;;;;;8.00;3.23;;;;;;;;;;5014668;28;20177;-83
2022/10/08 17:13:06;;;;;;;6.87;2.43;;;;;;;;;;5013700;28;20213;-83
2022/10/08 17:16:12;;;;;;;6.13;2.07;;;;;;;;;;5014571;28;20177;-83
2022/10/08 17:19:17;;;;;;;6.53;1.90;;;;;;;;;;5014339;28;20177;-83
2022/10/08 17:22:21;;;;;;;6.30;2.00;;;;;;;;;;5025812;28;20192;-83
2022/10/08 17:25:25;;;;;;;3.70;1.80;;;;;;;;;;5036479;28;20192;-83
2022/10/08 17:28:32;;;;;;;6.00;2.17;;;;;;;;;;5013887;28;20200;-83
2022/10/08 17:31:36;;;;;;;7.33;2.20;;;;;;;;;;5028262;28;20575;-83
2022/10/08 17:34:40;;;;;;;5.53;2.10;;;;;;;;;;5010977;28;20216;-83
2022/10/08 17:37:45;;;;;;;5.00;1.80;;;;;;;;;;5014343;28;20177;-83
2022/10/08 17:40:49;;;;;;;9.17;2.23;;;;;;;;;;5013827;28;20188;-83
2022/10/08 17:43:55;;;;;;;4.63;1.83;;;;;;;;;;5013872;28;20220;-82
2022/10/08 17:46:59;;;;;;;5.07;2.07;;;;;;;;;;5013571;28;20537;-83
2022/10/08 17:50:03;;;;;;;4.97;2.10;;;;;;;;;;5014181;28;20537;-82
2022/10/08 17:53:07;;;;;;;8.50;1.77;;;;;;;;;;5013642;28;20232;-82
2022/10/08 17:56:13;;;;;;;5.90;2.07;;;;;;;;;;5025501;28;20176;-82
2022/10/08 17:59:21;;;;;;;6.03;2.30;;;;;;;;;;5025226;28;20177;-83
2022/10/08 18:02:25;;;;;;;4.90;1.73;;;;;;;;;;5013203;28;20537;-82
2022/10/08 18:05:29;;;;;;;14.07;2.20;;;;;;;;;;5013388;28;20184;-83
2022/10/08 18:08:33;;;;;;;9.63;1.80;;;;;;;;;;5014012;28;20184;-83
2022/10/08 18:11:42;;;;;;;4.47;1.93;;;;;;;;;;5013828;28;20209;-82
2022/10/08 18:14:47;;;;;;;5.57;2.13;;;;;;;;;;5024633;28;20513;-82
2022/10/08 18:17:51;;;;;;;6.37;2.00;;;;;;;;;;5024960;28;20177;-83
2022/10/08 18:20:57;;;;;;;10.07;1.87;;;;;;;;;;5025226;28;20185;-83
2022/10/08 18:24:02;;;;;;;5.63;1.97;;;;;;;;;;5013704;28;20213;-83